sensor_id;sensor_type;location;lat;lon;timestamp;temperature;humidity
43183;DHT22;28802;38.578;-0.066;2022-12-07T00:02:07;14.70;99.90
43183;DHT22;28802;38.578;-0.066;2022-12-07T00:04:33;14.60;99.90
43183;DHT22;28802;38.578;-0.066;2022-12-07T00:06:59;14.70;99.90
43183;DHT22;28802;38.578;-0.066;2022-12-07T00:09:31;14.70;99.90
43183;DHT22;28802;38.578;-0.066;2022-12-07T00:11:57;14.60;99.90
43183;DHT22;28802;38.578;-0.066;2022-12-07T00:14:23;14.80;99.90
43183;DHT22;28802;38.578;-0.066;2022-12-07T00:16:52;14.80;99.90
43183;DHT22;28802;38.578;-0.066;2022-12-07T00:19:18;14.80;99.90
43183;DHT22;28802;38.578;-0.066;2022-12-07T00:21:45;14.90;99.90
43183;DHT22;28802;38.578;-0.066;2022-12-07T00:24:11;14.80;99.90
43183;DHT22;28802;38.578;-0.066;2022-12-07T00:26:40;14.90;99.90
43183;DHT22;28802;38.578;-0.066;2022-12-07T00:29:09;14.90;99.90
43183;DHT22;28802;38.578;-0.066;2022-12-07T00:31:37;14.90;99.90
43183;DHT22;28802;38.578;-0.066;2022-12-07T00:34:18;14.90;99.90
43183;DHT22;28802;38.578;-0.066;2022-12-07T00:36:44;14.90;99.90
43183;DHT22;28802;38.578;-0.066;2022-12-07T00:39:10;15.00;99.90
43183;DHT22;28802;38.578;-0.066;2022-12-07T00:41:36;14.90;99.90
43183;DHT22;28802;38.578;-0.066;2022-12-07T00:44:02;14.90;99.90
43183;DHT22;28802;38.578;-0.066;2022-12-07T00:46:29;14.90;99.90
43183;DHT22;28802;38.578;-0.066;2022-12-07T00:48:55;14.90;99.90
43183;DHT22;28802;38.578;-0.066;2022-12-07T00:51:23;14.90;99.90
43183;DHT22;28802;38.578;-0.066;2022-12-07T00:53:50;15.00;99.90
43183;DHT22;28802;38.578;-0.066;2022-12-07T00:56:20;14.80;99.90
43183;DHT22;28802;38.578;-0.066;2022-12-07T00:58:52;14.80;99.90
43183;DHT22;28802;38.578;-0.066;2022-12-07T01:01:18;14.90;99.90
43183;DHT22;28802;38.578;-0.066;2022-12-07T01:03:44;14.80;99.90
43183;DHT22;28802;38.578;-0.066;2022-12-07T01:06:14;14.90;99.90
43183;DHT22;28802;38.578;-0.066;2022-12-07T01:08:40;14.90;99.90
43183;DHT22;28802;38.578;-0.066;2022-12-07T01:11:09;15.00;99.90
43183;DHT22;28802;38.578;-0.066;2022-12-07T01:13:37;14.80;99.90
43183;DHT22;28802;38.578;-0.066;2022-12-07T01:16:05;14.90;99.90
43183;DHT22;28802;38.578;-0.066;2022-12-07T01:18:33;14.80;99.90
43183;DHT22;28802;38.578;-0.066;2022-12-07T01:21:00;14.80;99.90
43183;DHT22;28802;38.578;-0.066;2022-12-07T01:23:26;14.80;99.90
43183;DHT22;28802;38.578;-0.066;2022-12-07T01:26:00;15.00;99.90
43183;DHT22;28802;38.578;-0.066;2022-12-07T01:28:27;15.10;99.90
43183;DHT22;28802;38.578;-0.066;2022-12-07T01:31:07;15.10;99.90
43183;DHT22;28802;38.578;-0.066;2022-12-07T01:33:36;15.10;99.90
43183;DHT22;28802;38.578;-0.066;2022-12-07T01:38:38;15.10;99.90
43183;DHT22;28802;38.578;-0.066;2022-12-07T01:41:04;15.00;99.90
43183;DHT22;28802;38.578;-0.066;2022-12-07T01:43:32;15.00;99.90
43183;DHT22;28802;38.578;-0.066;2022-12-07T01:46:00;15.00;99.90
43183;DHT22;28802;38.578;-0.066;2022-12-07T01:48:44;14.90;99.90
43183;DHT22;28802;38.578;-0.066;2022-12-07T01:51:12;14.80;99.90
43183;DHT22;28802;38.578;-0.066;2022-12-07T01:53:43;14.90;99.90
43183;DHT22;28802;38.578;-0.066;2022-12-07T01:56:16;15.00;99.90
43183;DHT22;28802;38.578;-0.066;2022-12-07T01:58:43;15.00;99.90
43183;DHT22;28802;38.578;-0.066;2022-12-07T02:01:10;14.90;99.90
43183;DHT22;28802;38.578;-0.066;2022-12-07T02:03:40;14.80;99.90
43183;DHT22;28802;38.578;-0.066;2022-12-07T02:06:08;14.80;99.90
43183;DHT22;28802;38.578;-0.066;2022-12-07T02:08:35;14.80;99.90
43183;DHT22;28802;38.578;-0.066;2022-12-07T02:11:03;14.90;99.90
43183;DHT22;28802;38.578;-0.066;2022-12-07T02:13:31;14.90;99.90
43183;DHT22;28802;38.578;-0.066;2022-12-07T02:16:21;14.80;99.90
43183;DHT22;28802;38.578;-0.066;2022-12-07T02:32:24;14.70;99.90
43183;DHT22;28802;38.578;-0.066;2022-12-07T02:34:54;14.70;99.90
43183;DHT22;28802;38.578;-0.066;2022-12-07T02:40:28;14.60;99.90
43183;DHT22;28802;38.578;-0.066;2022-12-07T02:43:04;14.60;99.90
43183;DHT22;28802;38.578;-0.066;2022-12-07T02:45:35;14.80;99.90
43183;DHT22;28802;38.578;-0.066;2022-12-07T02:48:02;14.80;99.90
43183;DHT22;28802;38.578;-0.066;2022-12-07T02:50:30;14.80;99.90
43183;DHT22;28802;38.578;-0.066;2022-12-07T02:52:56;14.90;99.90
43183;DHT22;28802;38.578;-0.066;2022-12-07T02:55:28;14.80;99.90
43183;DHT22;28802;38.578;-0.066;2022-12-07T02:58:17;14.80;99.90
43183;DHT22;28802;38.578;-0.066;2022-12-07T03:04:08;14.90;99.90
43183;DHT22;28802;38.578;-0.066;2022-12-07T03:06:44;14.90;99.90
43183;DHT22;28802;38.578;-0.066;2022-12-07T03:09:14;15.00;99.90
43183;DHT22;28802;38.578;-0.066;2022-12-07T03:12:05;15.00;99.90
43183;DHT22;28802;38.578;-0.066;2022-12-07T03:14:43;15.00;99.90
43183;DHT22;28802;38.578;-0.066;2022-12-07T03:17:25;15.00;99.90
43183;DHT22;28802;38.578;-0.066;2022-12-07T03:19:55;14.90;99.90
43183;DHT22;28802;38.578;-0.066;2022-12-07T03:22:23;15.00;99.90
43183;DHT22;28802;38.578;-0.066;2022-12-07T03:25:00;15.00;99.90
43183;DHT22;28802;38.578;-0.066;2022-12-07T03:27:32;14.90;99.90
43183;DHT22;28802;38.578;-0.066;2022-12-07T03:30:03;14.90;99.90
43183;DHT22;28802;38.578;-0.066;2022-12-07T03:41:09;15.00;99.90
43183;DHT22;28802;38.578;-0.066;2022-12-07T03:43:37;14.90;99.90
43183;DHT22;28802;38.578;-0.066;2022-12-07T03:54:26;14.80;99.90
43183;DHT22;28802;38.578;-0.066;2022-12-07T03:56:55;14.90;99.90
43183;DHT22;28802;38.578;-0.066;2022-12-07T03:59:22;15.00;99.90
43183;DHT22;28802;38.578;-0.066;2022-12-07T04:01:57;15.10;99.90
43183;DHT22;28802;38.578;-0.066;2022-12-07T04:04:33;15.10;99.90
43183;DHT22;28802;38.578;-0.066;2022-12-07T04:07:00;15.10;99.90
43183;DHT22;28802;38.578;-0.066;2022-12-07T04:09:27;15.00;99.90
43183;DHT22;28802;38.578;-0.066;2022-12-07T04:11:53;14.90;99.90
43183;DHT22;28802;38.578;-0.066;2022-12-07T04:14:22;14.90;99.90
43183;DHT22;28802;38.578;-0.066;2022-12-07T04:19:16;15.00;99.90
43183;DHT22;28802;38.578;-0.066;2022-12-07T04:21:43;15.10;99.90
43183;DHT22;28802;38.578;-0.066;2022-12-07T04:24:09;15.10;99.90
43183;DHT22;28802;38.578;-0.066;2022-12-07T04:26:35;15.10;99.90
43183;DHT22;28802;38.578;-0.066;2022-12-07T04:29:04;15.00;99.90
43183;DHT22;28802;38.578;-0.066;2022-12-07T04:31:33;14.90;99.90
43183;DHT22;28802;38.578;-0.066;2022-12-07T04:34:06;14.90;99.90
43183;DHT22;28802;38.578;-0.066;2022-12-07T04:36:33;14.90;99.90
43183;DHT22;28802;38.578;-0.066;2022-12-07T04:38:59;14.90;99.90
43183;DHT22;28802;38.578;-0.066;2022-12-07T04:41:26;14.90;99.90
43183;DHT22;28802;38.578;-0.066;2022-12-07T04:44:02;14.90;99.90
43183;DHT22;28802;38.578;-0.066;2022-12-07T04:46:31;15.00;99.90
43183;DHT22;28802;38.578;-0.066;2022-12-07T04:48:57;14.90;99.90
43183;DHT22;28802;38.578;-0.066;2022-12-07T04:51:26;14.90;99.90
43183;DHT22;28802;38.578;-0.066;2022-12-07T04:53:53;15.00;99.90
43183;DHT22;28802;38.578;-0.066;2022-12-07T04:56:19;15.00;99.90
43183;DHT22;28802;38.578;-0.066;2022-12-07T04:58:47;15.00;99.90
43183;DHT22;28802;38.578;-0.066;2022-12-07T05:01:14;14.90;99.90
43183;DHT22;28802;38.578;-0.066;2022-12-07T05:03:40;14.80;99.90
43183;DHT22;28802;38.578;-0.066;2022-12-07T05:06:08;14.80;99.90
43183;DHT22;28802;38.578;-0.066;2022-12-07T05:08:34;14.80;99.90
43183;DHT22;28802;38.578;-0.066;2022-12-07T05:11:00;14.90;99.90
43183;DHT22;28802;38.578;-0.066;2022-12-07T05:13:27;15.00;99.90
43183;DHT22;28802;38.578;-0.066;2022-12-07T05:15:53;15.00;99.90
43183;DHT22;28802;38.578;-0.066;2022-12-07T05:18:18;14.90;99.90
43183;DHT22;28802;38.578;-0.066;2022-12-07T05:20:45;14.80;99.90
43183;DHT22;28802;38.578;-0.066;2022-12-07T05:23:11;14.90;99.90
43183;DHT22;28802;38.578;-0.066;2022-12-07T05:25:37;14.90;99.90
43183;DHT22;28802;38.578;-0.066;2022-12-07T05:28:04;14.70;99.90
43183;DHT22;28802;38.578;-0.066;2022-12-07T05:30:30;14.70;99.90
43183;DHT22;28802;38.578;-0.066;2022-12-07T05:32:57;14.80;99.90
43183;DHT22;28802;38.578;-0.066;2022-12-07T05:35:23;14.80;99.90
43183;DHT22;28802;38.578;-0.066;2022-12-07T05:37:49;14.90;99.90
43183;DHT22;28802;38.578;-0.066;2022-12-07T05:40:16;14.90;99.90
43183;DHT22;28802;38.578;-0.066;2022-12-07T05:42:42;14.90;99.90
43183;DHT22;28802;38.578;-0.066;2022-12-07T05:45:09;14.90;99.90
43183;DHT22;28802;38.578;-0.066;2022-12-07T05:47:35;14.90;99.90
43183;DHT22;28802;38.578;-0.066;2022-12-07T05:50:02;14.90;99.90
43183;DHT22;28802;38.578;-0.066;2022-12-07T05:52:28;14.80;99.90
43183;DHT22;28802;38.578;-0.066;2022-12-07T05:54:53;14.80;99.90
43183;DHT22;28802;38.578;-0.066;2022-12-07T05:57:19;14.90;99.90
43183;DHT22;28802;38.578;-0.066;2022-12-07T05:59:45;14.80;99.90
43183;DHT22;28802;38.578;-0.066;2022-12-07T06:02:13;14.60;99.90
43183;DHT22;28802;38.578;-0.066;2022-12-07T06:04:41;14.70;99.90
43183;DHT22;28802;38.578;-0.066;2022-12-07T06:07:12;14.70;99.90
43183;DHT22;28802;38.578;-0.066;2022-12-07T06:09:41;14.80;99.90
43183;DHT22;28802;38.578;-0.066;2022-12-07T06:12:10;14.80;99.90
43183;DHT22;28802;38.578;-0.066;2022-12-07T06:14:54;14.70;99.90
43183;DHT22;28802;38.578;-0.066;2022-12-07T06:17:20;14.70;99.90
43183;DHT22;28802;38.578;-0.066;2022-12-07T06:19:46;14.70;99.90
43183;DHT22;28802;38.578;-0.066;2022-12-07T06:22:12;14.70;99.90
43183;DHT22;28802;38.578;-0.066;2022-12-07T06:24:39;14.70;99.90
43183;DHT22;28802;38.578;-0.066;2022-12-07T06:27:05;14.70;99.90
43183;DHT22;28802;38.578;-0.066;2022-12-07T06:29:31;14.70;99.90
43183;DHT22;28802;38.578;-0.066;2022-12-07T06:31:57;14.70;99.90
43183;DHT22;28802;38.578;-0.066;2022-12-07T06:34:24;14.70;99.90
43183;DHT22;28802;38.578;-0.066;2022-12-07T06:36:51;14.60;99.90
43183;DHT22;28802;38.578;-0.066;2022-12-07T06:39:21;14.60;99.90
43183;DHT22;28802;38.578;-0.066;2022-12-07T06:41:48;14.60;99.90
43183;DHT22;28802;38.578;-0.066;2022-12-07T06:44:14;14.70;99.90
43183;DHT22;28802;38.578;-0.066;2022-12-07T06:46:40;14.70;99.90
43183;DHT22;28802;38.578;-0.066;2022-12-07T06:49:06;14.70;99.90
43183;DHT22;28802;38.578;-0.066;2022-12-07T06:51:33;14.70;99.90
43183;DHT22;28802;38.578;-0.066;2022-12-07T06:54:04;14.70;99.90
43183;DHT22;28802;38.578;-0.066;2022-12-07T06:56:30;14.70;99.90
43183;DHT22;28802;38.578;-0.066;2022-12-07T06:59:00;14.70;99.90
43183;DHT22;28802;38.578;-0.066;2022-12-07T07:01:26;14.60;99.90
43183;DHT22;28802;38.578;-0.066;2022-12-07T07:03:52;14.60;99.90
43183;DHT22;28802;38.578;-0.066;2022-12-07T07:06:18;14.70;99.90
43183;DHT22;28802;38.578;-0.066;2022-12-07T07:08:47;14.70;99.90
43183;DHT22;28802;38.578;-0.066;2022-12-07T07:11:13;14.70;99.90
43183;DHT22;28802;38.578;-0.066;2022-12-07T07:13:39;14.70;99.90
43183;DHT22;28802;38.578;-0.066;2022-12-07T07:16:06;14.70;99.90
43183;DHT22;28802;38.578;-0.066;2022-12-07T07:18:32;14.50;99.90
43183;DHT22;28802;38.578;-0.066;2022-12-07T07:21:16;14.30;99.90
43183;DHT22;28802;38.578;-0.066;2022-12-07T07:23:42;14.20;99.90
43183;DHT22;28802;38.578;-0.066;2022-12-07T07:26:08;14.30;99.90
43183;DHT22;28802;38.578;-0.066;2022-12-07T07:28:34;14.40;99.90
43183;DHT22;28802;38.578;-0.066;2022-12-07T07:31:00;14.60;99.90
43183;DHT22;28802;38.578;-0.066;2022-12-07T07:33:30;14.40;99.90
43183;DHT22;28802;38.578;-0.066;2022-12-07T07:36:02;14.20;99.90
43183;DHT22;28802;38.578;-0.066;2022-12-07T07:38:27;14.10;99.90
43183;DHT22;28802;38.578;-0.066;2022-12-07T07:40:53;14.10;99.90
43183;DHT22;28802;38.578;-0.066;2022-12-07T07:43:19;14.20;99.90
43183;DHT22;28802;38.578;-0.066;2022-12-07T07:45:45;14.20;99.90
43183;DHT22;28802;38.578;-0.066;2022-12-07T07:48:11;14.30;99.90
43183;DHT22;28802;38.578;-0.066;2022-12-07T07:50:37;14.40;99.90
43183;DHT22;28802;38.578;-0.066;2022-12-07T07:53:03;14.50;99.90
43183;DHT22;28802;38.578;-0.066;2022-12-07T07:55:37;14.70;99.90
43183;DHT22;28802;38.578;-0.066;2022-12-07T07:58:03;14.80;99.90
43183;DHT22;28802;38.578;-0.066;2022-12-07T08:00:29;14.80;99.90
43183;DHT22;28802;38.578;-0.066;2022-12-07T08:02:55;14.80;99.90
43183;DHT22;28802;38.578;-0.066;2022-12-07T08:05:21;14.90;99.90
43183;DHT22;28802;38.578;-0.066;2022-12-07T08:07:47;15.00;99.90
43183;DHT22;28802;38.578;-0.066;2022-12-07T08:10:13;14.90;99.90
43183;DHT22;28802;38.578;-0.066;2022-12-07T08:12:41;14.80;99.90
43183;DHT22;28802;38.578;-0.066;2022-12-07T08:15:29;14.70;99.90
43183;DHT22;28802;38.578;-0.066;2022-12-07T08:17:55;14.80;99.90
43183;DHT22;28802;38.578;-0.066;2022-12-07T08:20:22;14.90;99.90
43183;DHT22;28802;38.578;-0.066;2022-12-07T08:22:48;15.20;99.90
43183;DHT22;28802;38.578;-0.066;2022-12-07T08:25:13;15.40;99.90
43183;DHT22;28802;38.578;-0.066;2022-12-07T08:27:39;15.40;99.90
43183;DHT22;28802;38.578;-0.066;2022-12-07T08:30:06;15.40;99.90
43183;DHT22;28802;38.578;-0.066;2022-12-07T08:32:34;15.50;99.90
43183;DHT22;28802;38.578;-0.066;2022-12-07T08:35:13;15.80;99.90
43183;DHT22;28802;38.578;-0.066;2022-12-07T08:37:45;15.90;99.90
43183;DHT22;28802;38.578;-0.066;2022-12-07T08:40:15;16.10;99.90
43183;DHT22;28802;38.578;-0.066;2022-12-07T08:42:49;16.10;99.90
43183;DHT22;28802;38.578;-0.066;2022-12-07T08:45:19;16.20;99.90
43183;DHT22;28802;38.578;-0.066;2022-12-07T08:47:50;16.30;99.90
43183;DHT22;28802;38.578;-0.066;2022-12-07T08:50:20;16.30;99.90
43183;DHT22;28802;38.578;-0.066;2022-12-07T08:52:51;16.30;99.90
43183;DHT22;28802;38.578;-0.066;2022-12-07T08:55:18;16.40;99.90
43183;DHT22;28802;38.578;-0.066;2022-12-07T08:57:45;16.30;99.90
43183;DHT22;28802;38.578;-0.066;2022-12-07T09:00:13;16.40;99.90
43183;DHT22;28802;38.578;-0.066;2022-12-07T09:02:39;16.50;99.90
43183;DHT22;28802;38.578;-0.066;2022-12-07T09:05:06;16.70;99.90
43183;DHT22;28802;38.578;-0.066;2022-12-07T09:07:33;16.70;99.90
43183;DHT22;28802;38.578;-0.066;2022-12-07T09:09:59;16.70;99.90
43183;DHT22;28802;38.578;-0.066;2022-12-07T09:23:13;16.80;99.90
43183;DHT22;28802;38.578;-0.066;2022-12-07T09:25:39;17.50;99.90
43183;DHT22;28802;38.578;-0.066;2022-12-07T09:28:05;17.70;99.90
43183;DHT22;28802;38.578;-0.066;2022-12-07T09:30:35;17.90;99.90
43183;DHT22;28802;38.578;-0.066;2022-12-07T09:33:01;17.90;99.90
43183;DHT22;28802;38.578;-0.066;2022-12-07T09:35:27;18.00;99.90
43183;DHT22;28802;38.578;-0.066;2022-12-07T09:37:53;18.60;99.90
43183;DHT22;28802;38.578;-0.066;2022-12-07T09:40:21;19.00;99.90
43183;DHT22;28802;38.578;-0.066;2022-12-07T09:42:51;19.20;99.90
43183;DHT22;28802;38.578;-0.066;2022-12-07T09:45:37;18.80;99.90
43183;DHT22;28802;38.578;-0.066;2022-12-07T09:48:04;19.20;99.90
43183;DHT22;28802;38.578;-0.066;2022-12-07T09:50:31;19.50;99.90
43183;DHT22;28802;38.578;-0.066;2022-12-07T09:53:24;20.00;99.90
43183;DHT22;28802;38.578;-0.066;2022-12-07T09:55:51;20.40;99.90
43183;DHT22;28802;38.578;-0.066;2022-12-07T09:58:21;20.90;99.90
43183;DHT22;28802;38.578;-0.066;2022-12-07T10:00:49;20.80;99.90
43183;DHT22;28802;38.578;-0.066;2022-12-07T10:03:16;20.60;99.90
43183;DHT22;28802;38.578;-0.066;2022-12-07T10:05:45;20.20;99.90
43183;DHT22;28802;38.578;-0.066;2022-12-07T10:08:18;20.10;99.90
43183;DHT22;28802;38.578;-0.066;2022-12-07T10:10:52;19.80;99.90
43183;DHT22;28802;38.578;-0.066;2022-12-07T10:13:42;19.40;99.90
43183;DHT22;28802;38.578;-0.066;2022-12-07T10:16:31;19.10;99.90
43183;DHT22;28802;38.578;-0.066;2022-12-07T10:22:15;18.40;99.90
43183;DHT22;28802;38.578;-0.066;2022-12-07T10:24:43;18.40;99.90
43183;DHT22;28802;38.578;-0.066;2022-12-07T10:27:22;19.10;99.90
43183;DHT22;28802;38.578;-0.066;2022-12-07T10:29:52;18.70;99.90
43183;DHT22;28802;38.578;-0.066;2022-12-07T10:34:44;18.20;99.90
43183;DHT22;28802;38.578;-0.066;2022-12-07T10:37:15;18.50;99.90
43183;DHT22;28802;38.578;-0.066;2022-12-07T10:42:25;18.40;99.90
43183;DHT22;28802;38.578;-0.066;2022-12-07T10:45:17;18.40;99.90
43183;DHT22;28802;38.578;-0.066;2022-12-07T10:47:48;18.20;99.90
43183;DHT22;28802;38.578;-0.066;2022-12-07T10:53:21;18.30;99.90
43183;DHT22;28802;38.578;-0.066;2022-12-07T11:07:01;18.90;99.90
43183;DHT22;28802;38.578;-0.066;2022-12-07T11:12:49;18.60;99.90
43183;DHT22;28802;38.578;-0.066;2022-12-07T11:37:54;18.60;99.90
43183;DHT22;28802;38.578;-0.066;2022-12-07T11:40:30;18.50;99.90
43183;DHT22;28802;38.578;-0.066;2022-12-07T11:43:27;18.60;99.90
43183;DHT22;28802;38.578;-0.066;2022-12-07T11:46:06;18.70;99.90
43183;DHT22;28802;38.578;-0.066;2022-12-07T11:48:40;18.80;99.90
43183;DHT22;28802;38.578;-0.066;2022-12-07T11:51:12;19.30;99.90
43183;DHT22;28802;38.578;-0.066;2022-12-07T11:58:56;18.50;99.90
43183;DHT22;28802;38.578;-0.066;2022-12-07T12:06:41;18.60;99.90
43183;DHT22;28802;38.578;-0.066;2022-12-07T12:09:17;18.70;99.90
43183;DHT22;28802;38.578;-0.066;2022-12-07T12:19:55;18.80;99.90
43183;DHT22;28802;38.578;-0.066;2022-12-07T12:22:51;18.40;99.90
43183;DHT22;28802;38.578;-0.066;2022-12-07T12:25:57;18.40;99.90
43183;DHT22;28802;38.578;-0.066;2022-12-07T12:31:06;18.80;99.90
43183;DHT22;28802;38.578;-0.066;2022-12-07T12:33:33;18.50;99.90
43183;DHT22;28802;38.578;-0.066;2022-12-07T12:46:53;19.00;99.90
43183;DHT22;28802;38.578;-0.066;2022-12-07T12:51:58;19.10;99.90
43183;DHT22;28802;38.578;-0.066;2022-12-07T12:54:30;19.00;99.90
43183;DHT22;28802;38.578;-0.066;2022-12-07T13:02:26;18.40;99.90
43183;DHT22;28802;38.578;-0.066;2022-12-07T13:15:49;18.00;99.90
43183;DHT22;28802;38.578;-0.066;2022-12-07T13:20:57;18.00;99.90
43183;DHT22;28802;38.578;-0.066;2022-12-07T13:29:24;17.90;99.90
43183;DHT22;28802;38.578;-0.066;2022-12-07T13:31:56;17.90;99.90
43183;DHT22;28802;38.578;-0.066;2022-12-07T13:34:41;17.90;99.90
43183;DHT22;28802;38.578;-0.066;2022-12-07T13:39:56;17.80;99.90
43183;DHT22;28802;38.578;-0.066;2022-12-07T13:42:26;17.70;99.90
43183;DHT22;28802;38.578;-0.066;2022-12-07T13:44:53;17.70;99.90
43183;DHT22;28802;38.578;-0.066;2022-12-07T13:47:49;17.80;99.90
43183;DHT22;28802;38.578;-0.066;2022-12-07T13:50:29;17.90;99.90
43183;DHT22;28802;38.578;-0.066;2022-12-07T13:53:00;17.90;99.90
43183;DHT22;28802;38.578;-0.066;2022-12-07T13:55:28;18.00;99.90
43183;DHT22;28802;38.578;-0.066;2022-12-07T13:57:55;18.00;99.90
43183;DHT22;28802;38.578;-0.066;2022-12-07T14:00:23;17.90;99.90
43183;DHT22;28802;38.578;-0.066;2022-12-07T14:05:39;17.80;99.90
43183;DHT22;28802;38.578;-0.066;2022-12-07T14:08:22;17.60;99.90
43183;DHT22;28802;38.578;-0.066;2022-12-07T14:13:30;17.50;99.90
43183;DHT22;28802;38.578;-0.066;2022-12-07T14:15:58;17.50;99.90
43183;DHT22;28802;38.578;-0.066;2022-12-07T14:18:27;17.60;99.90
43183;DHT22;28802;38.578;-0.066;2022-12-07T14:21:27;17.50;99.90
43183;DHT22;28802;38.578;-0.066;2022-12-07T14:24:30;17.40;99.90
43183;DHT22;28802;38.578;-0.066;2022-12-07T14:26:55;17.30;99.90
43183;DHT22;28802;38.578;-0.066;2022-12-07T14:29:32;17.20;99.90
43183;DHT22;28802;38.578;-0.066;2022-12-07T14:32:28;17.40;99.90
43183;DHT22;28802;38.578;-0.066;2022-12-07T14:35:29;17.40;99.90
43183;DHT22;28802;38.578;-0.066;2022-12-07T14:37:48;17.40;99.90
43183;DHT22;28802;38.578;-0.066;2022-12-07T14:40:21;17.30;99.90
43183;DHT22;28802;38.578;-0.066;2022-12-07T14:42:52;17.30;99.90
43183;DHT22;28802;38.578;-0.066;2022-12-07T14:45:22;17.30;99.90
43183;DHT22;28802;38.578;-0.066;2022-12-07T14:47:48;17.30;99.90
43183;DHT22;28802;38.578;-0.066;2022-12-07T14:50:17;17.30;99.90
43183;DHT22;28802;38.578;-0.066;2022-12-07T14:52:48;17.30;99.90
43183;DHT22;28802;38.578;-0.066;2022-12-07T14:55:33;17.30;99.90
43183;DHT22;28802;38.578;-0.066;2022-12-07T14:57:59;17.30;99.90
43183;DHT22;28802;38.578;-0.066;2022-12-07T15:00:27;17.30;99.90
43183;DHT22;28802;38.578;-0.066;2022-12-07T15:02:53;17.40;99.90
43183;DHT22;28802;38.578;-0.066;2022-12-07T15:05:19;17.30;99.90
43183;DHT22;28802;38.578;-0.066;2022-12-07T15:07:46;17.20;99.90
43183;DHT22;28802;38.578;-0.066;2022-12-07T15:10:25;17.40;99.90
43183;DHT22;28802;38.578;-0.066;2022-12-07T15:12:56;17.30;99.90
43183;DHT22;28802;38.578;-0.066;2022-12-07T15:15:49;17.30;99.90
43183;DHT22;28802;38.578;-0.066;2022-12-07T15:18:16;17.20;99.90
43183;DHT22;28802;38.578;-0.066;2022-12-07T15:20:43;17.30;99.90
43183;DHT22;28802;38.578;-0.066;2022-12-07T15:23:10;17.30;99.90
43183;DHT22;28802;38.578;-0.066;2022-12-07T15:25:36;17.40;99.90
43183;DHT22;28802;38.578;-0.066;2022-12-07T15:28:02;17.40;99.90
43183;DHT22;28802;38.578;-0.066;2022-12-07T15:30:28;17.30;99.90
43183;DHT22;28802;38.578;-0.066;2022-12-07T15:32:54;17.30;99.90
43183;DHT22;28802;38.578;-0.066;2022-12-07T15:35:20;17.40;99.90
43183;DHT22;28802;38.578;-0.066;2022-12-07T15:37:46;17.40;99.90
43183;DHT22;28802;38.578;-0.066;2022-12-07T15:40:13;17.30;99.90
43183;DHT22;28802;38.578;-0.066;2022-12-07T15:42:40;17.20;99.90
43183;DHT22;28802;38.578;-0.066;2022-12-07T15:45:07;17.10;99.90
43183;DHT22;28802;38.578;-0.066;2022-12-07T15:47:42;17.10;99.90
43183;DHT22;28802;38.578;-0.066;2022-12-07T15:50:11;17.20;99.90
43183;DHT22;28802;38.578;-0.066;2022-12-07T15:52:41;17.30;99.90
43183;DHT22;28802;38.578;-0.066;2022-12-07T15:55:07;17.30;99.90
43183;DHT22;28802;38.578;-0.066;2022-12-07T15:57:36;17.30;99.90
43183;DHT22;28802;38.578;-0.066;2022-12-07T16:00:09;17.30;99.90
43183;DHT22;28802;38.578;-0.066;2022-12-07T16:02:36;17.30;99.90
43183;DHT22;28802;38.578;-0.066;2022-12-07T16:05:02;17.30;99.90
43183;DHT22;28802;38.578;-0.066;2022-12-07T16:07:28;17.30;99.90
43183;DHT22;28802;38.578;-0.066;2022-12-07T16:09:54;17.10;99.90
43183;DHT22;28802;38.578;-0.066;2022-12-07T16:12:20;17.10;99.90
43183;DHT22;28802;38.578;-0.066;2022-12-07T16:14:46;17.10;99.90
43183;DHT22;28802;38.578;-0.066;2022-12-07T16:17:12;17.00;99.90
43183;DHT22;28802;38.578;-0.066;2022-12-07T16:19:38;17.00;99.90
43183;DHT22;28802;38.578;-0.066;2022-12-07T16:22:04;17.00;99.90
43183;DHT22;28802;38.578;-0.066;2022-12-07T16:24:33;17.00;99.90
43183;DHT22;28802;38.578;-0.066;2022-12-07T16:26:59;17.00;99.90
43183;DHT22;28802;38.578;-0.066;2022-12-07T16:29:29;16.90;99.90
43183;DHT22;28802;38.578;-0.066;2022-12-07T16:31:55;16.90;99.90
43183;DHT22;28802;38.578;-0.066;2022-12-07T16:34:21;16.90;99.90
43183;DHT22;28802;38.578;-0.066;2022-12-07T16:36:48;16.90;99.90
43183;DHT22;28802;38.578;-0.066;2022-12-07T16:39:14;17.00;99.90
43183;DHT22;28802;38.578;-0.066;2022-12-07T16:41:41;17.00;99.90
43183;DHT22;28802;38.578;-0.066;2022-12-07T16:44:10;16.90;99.90
43183;DHT22;28802;38.578;-0.066;2022-12-07T16:46:38;16.80;99.90
43183;DHT22;28802;38.578;-0.066;2022-12-07T16:49:04;17.00;99.90
43183;DHT22;28802;38.578;-0.066;2022-12-07T16:51:31;17.10;99.90
43183;DHT22;28802;38.578;-0.066;2022-12-07T16:53:57;17.10;99.90
43183;DHT22;28802;38.578;-0.066;2022-12-07T16:56:23;17.10;99.90
43183;DHT22;28802;38.578;-0.066;2022-12-07T16:59:00;17.10;99.90
43183;DHT22;28802;38.578;-0.066;2022-12-07T17:01:26;17.00;99.90
43183;DHT22;28802;38.578;-0.066;2022-12-07T17:03:53;16.90;99.90
43183;DHT22;28802;38.578;-0.066;2022-12-07T17:06:22;16.90;99.90
43183;DHT22;28802;38.578;-0.066;2022-12-07T17:08:49;16.90;99.90
43183;DHT22;28802;38.578;-0.066;2022-12-07T17:11:18;16.70;99.90
43183;DHT22;28802;38.578;-0.066;2022-12-07T17:13:44;16.50;99.90
43183;DHT22;28802;38.578;-0.066;2022-12-07T17:16:30;16.40;99.90
43183;DHT22;28802;38.578;-0.066;2022-12-07T17:18:56;16.20;99.90
43183;DHT22;28802;38.578;-0.066;2022-12-07T17:21:23;16.10;99.90
43183;DHT22;28802;38.578;-0.066;2022-12-07T17:23:49;16.00;99.90
43183;DHT22;28802;38.578;-0.066;2022-12-07T17:26:18;16.00;99.90
43183;DHT22;28802;38.578;-0.066;2022-12-07T17:28:44;15.90;99.90
43183;DHT22;28802;38.578;-0.066;2022-12-07T17:31:12;15.70;99.90
43183;DHT22;28802;38.578;-0.066;2022-12-07T17:33:38;15.60;99.90
43183;DHT22;28802;38.578;-0.066;2022-12-07T17:36:17;15.50;99.90
43183;DHT22;28802;38.578;-0.066;2022-12-07T17:38:44;15.50;99.90
43183;DHT22;28802;38.578;-0.066;2022-12-07T17:41:15;15.40;99.90
43183;DHT22;28802;38.578;-0.066;2022-12-07T17:44:08;15.30;99.90
43183;DHT22;28802;38.578;-0.066;2022-12-07T17:46:35;15.30;99.90
43183;DHT22;28802;38.578;-0.066;2022-12-07T17:49:02;15.20;99.90
43183;DHT22;28802;38.578;-0.066;2022-12-07T17:51:29;15.10;99.90
43183;DHT22;28802;38.578;-0.066;2022-12-07T17:54:16;15.10;99.90
43183;DHT22;28802;38.578;-0.066;2022-12-07T17:56:46;15.00;99.90
43183;DHT22;28802;38.578;-0.066;2022-12-07T17:59:12;14.90;99.90
43183;DHT22;28802;38.578;-0.066;2022-12-07T18:12:34;14.90;99.90
43183;DHT22;28802;38.578;-0.066;2022-12-07T18:15:00;15.20;99.90
43183;DHT22;28802;38.578;-0.066;2022-12-07T18:17:26;15.10;99.90
43183;DHT22;28802;38.578;-0.066;2022-12-07T18:19:52;14.90;99.90
43183;DHT22;28802;38.578;-0.066;2022-12-07T18:22:21;14.80;99.90
43183;DHT22;28802;38.578;-0.066;2022-12-07T18:24:47;14.70;99.90
43183;DHT22;28802;38.578;-0.066;2022-12-07T18:27:13;14.70;99.90
43183;DHT22;28802;38.578;-0.066;2022-12-07T18:29:40;14.60;99.90
43183;DHT22;28802;38.578;-0.066;2022-12-07T18:32:06;14.60;99.90